Flight Track Log - Related Links

Times and Time Zones

All times are in EDT time to prevent confusion due to time zone crossing. See the EJA839 flight status page for this flight to view local times or setup timezone preferences in your user account.


Time Position Orientation Groundspeed Altitude Reporting Facility
EDT Latitude Longitude Course Direction KTS MPH feet Rate Location/Type
Sat 06:57:52 PM 37.3894 -77.6986 306° West 178 205 4,600  Level Washington Center
Sat 06:58:53 PM 37.4647 -77.6825 10° North 211 243 8,100 3,443 Climbing Washington Center
Sat 07:00:00 PM 37.5260 -77.6735 North  Level Estimated
Sat 07:01:00 PM 37.7378 -77.5111 North  Level Estimated
Sat 07:07:00 PM 37.9101 -77.6166 North  Level Estimated
Sat 07:08:00 PM 37.9650 -77.6084 North  Level Estimated
Sat 07:09:00 PM 38.0199 -77.6002 North  Level Estimated
Sat 07:10:00 PM 38.0747 -77.5920 North  Level Estimated
Sat 07:11:00 PM 38.1296 -77.5838 North  Level Estimated
Sat 07:12:00 PM 38.1845 -77.5756 North  Level Estimated
Sat 07:13:00 PM 38.2393 -77.5674 North  Level Estimated
Sat 07:14:00 PM 38.2942 -77.5591 North  Level Estimated
Sat 07:15:00 PM 38.3491 -77.5509 North  Level Estimated
Sat 07:16:00 PM 38.4039 -77.5426 North  Level Estimated
Sat 07:17:00 PM 38.4588 -77.5343 North  Level Estimated
Sat 07:18:00 PM 38.5137 -77.5260 North  Level Estimated
Sat 07:19:00 PM 38.5686 -77.5177 North  Level Estimated
Sat 07:20:00 PM 38.6234 -77.5094 North  Level Estimated
Sat 07:21:00 PM 38.6783 -77.5010 North  Level Estimated
Sat 07:22:00 PM 38.7331 -77.4927 North  Level Estimated
Sat 07:23:00 PM 38.7880 -77.4843 North  Level Estimated
Sat 07:24:00 PM 38.8429 -77.4760 North  Level Estimated
Sat 07:25:00 PM 38.8977 -77.4676 North  Level Estimated
Sat 07:26:00 PM 38.9474 -77.4599 North  Level Estimated
Sat 07:27:00 PM 38.9474 -77.4599 322° Northwest  Level Estimated
Sat 07:28:00 PM 38.9474 -77.4599 322° Northwest  Level Estimated
Sat 07:29:00 PM 38.9474 -77.4599 322° Northwest  Level Estimated
Sat 07:30:00 PM 38.9474 -77.4599 322° Northwest  Level Estimated
Sat 07:31:00 PM 38.9474 -77.4599 322° Northwest  Level Estimated
Sat 07:32:00 PM 38.9474 -77.4599 322° Northwest  Level Estimated
Sat 07:33:00 PM 38.9474 -77.4599 322° Northwest  Level Estimated
Sat 07:34:00 PM 38.9474 -77.4599 322° Northwest  Level Estimated
Sat 07:35:00 PM 38.9474 -77.4599 322° Northwest  Level Estimated
Sat 07:36:00 PM 38.9474 -77.4599 322° Northwest  Level Estimated
Sat 07:37:00 PM 38.9474 -77.4599 322° Northwest  Level Estimated
Sat 07:38:00 PM 38.9474 -77.4599 322° Northwest  Level Estimated
Sat 07:39:00 PM 38.9474 -77.4599 322° Northwest  Level Estimated

Login

Don't have an account? Register now (free) for customized features, flight alerts, and more!